Time;durP1;ratioP1;P1;durP2;ratioP2;P2;SDS_P1;SDS_P2;PMS_P1;PMS_P2;Temp;Humidity;BMP_temperature;BMP_pressure;BME280_temperature;BME280_humidity;BME280_pressure;Samples;Min_cycle;Max_cycle;Signal;HPM_P1;HPM_P2
2024/01/14 00:01:20;;;;;;;8.70;2.20;;;26.30;99.90;;;;;;5108787;28;20708;-78
2024/01/14 00:03:50;;;;;;;8.00;2.58;;;26.30;99.90;;;;;;5110537;28;20198;-79
2024/01/14 00:06:23;;;;;;;8.85;2.20;;;26.30;99.90;;;;;;5104061;28;20210;-79
2024/01/14 00:08:57;;;;;;;6.80;2.17;;;26.30;99.90;;;;;;5107598;28;20186;-79
2024/01/14 00:11:28;;;;;;;6.50;2.42;;;26.30;99.90;;;;;;5107478;27;20217;-79
2024/01/14 00:13:59;;;;;;;7.05;2.78;;;26.40;99.90;;;;;;5110624;27;20194;-78
2024/01/14 00:16:32;;;;;;;7.20;2.22;;;26.40;99.90;;;;;;5121932;27;20187;-79
2024/01/14 00:19:03;;;;;;;6.78;2.10;;;26.40;99.90;;;;;;5113892;28;20205;-78
2024/01/14 00:21:36;;;;;;;8.05;2.55;;;26.50;99.90;;;;;;5109603;28;20207;-78
2024/01/14 00:24:07;;;;;;;7.30;2.10;;;26.50;99.90;;;;;;5113523;28;20649;-79
2024/01/14 00:26:38;;;;;;;7.18;2.25;;;26.50;99.90;;;;;;5113728;28;20267;-78
2024/01/14 00:29:09;;;;;;;8.57;2.65;;;26.50;99.90;;;;;;5108613;28;20247;-78
2024/01/14 00:31:39;;;;;;;6.82;2.30;;;26.60;99.90;;;;;;5102493;27;20706;-78
2024/01/14 00:34:10;;;;;;;6.75;2.50;;;26.70;99.90;;;;;;5113198;28;20199;-78
2024/01/14 00:36:44;;;;;;;7.32;2.40;;;26.70;99.90;;;;;;5113222;28;20201;-78
2024/01/14 00:39:15;;;;;;;6.15;2.10;;;26.70;99.90;;;;;;5113420;28;20218;-79
2024/01/14 00:41:45;;;;;;;6.05;2.10;;;26.70;99.90;;;;;;5103955;28;20600;-78
2024/01/14 00:44:16;;;;;;;5.28;2.03;;;26.70;99.90;;;;;;5092382;28;20206;-78
2024/01/14 00:46:47;;;;;;;10.30;2.70;;;26.70;99.90;;;;;;5099392;28;20264;-78
2024/01/14 00:49:17;;;;;;;7.43;2.00;;;26.70;99.90;;;;;;5110051;27;20560;-77
2024/01/14 00:51:50;;;;;;;8.45;2.55;;;26.70;99.90;;;;;;5109049;28;20199;-77
2024/01/14 00:54:21;;;;;;;7.90;2.30;;;26.80;99.90;;;;;;5109390;28;20190;-78
2024/01/14 00:56:52;;;;;;;9.60;2.40;;;26.80;99.90;;;;;;5110262;28;20201;-77
2024/01/14 00:59:23;;;;;;;7.13;2.25;;;26.80;99.90;;;;;;5109080;28;20199;-78
2024/01/14 01:01:54;;;;;;;8.75;2.53;;;26.80;99.90;;;;;;5103245;28;20226;-79
2024/01/14 01:04:27;;;;;;;9.40;2.25;;;26.90;99.90;;;;;;5108739;28;20312;-78
2024/01/14 01:07:00;;;;;;;8.52;2.45;;;27.00;99.90;;;;;;5098965;27;20748;-79
2024/01/14 01:09:31;;;;;;;9.52;2.47;;;27.10;99.90;;;;;;5092128;28;20215;-79
2024/01/14 01:12:01;;;;;;;9.40;2.65;;;27.30;99.90;;;;;;5092287;28;20252;-79
2024/01/14 01:14:32;;;;;;;8.95;2.45;;;27.30;99.90;;;;;;5091988;28;20280;-78
2024/01/14 01:17:03;;;;;;;12.73;3.25;;;27.30;99.90;;;;;;5091976;28;20289;-78
2024/01/14 01:19:34;;;;;;;8.38;2.47;;;27.30;99.90;;;;;;5108867;28;20738;-78
2024/01/14 01:22:07;;;;;;;11.23;2.90;;;27.30;99.90;;;;;;5096269;27;20202;-79
2024/01/14 01:24:40;;;;;;;9.68;2.83;;;27.20;99.90;;;;;;5112539;28;20226;-79
2024/01/14 01:27:13;;;;;;;10.77;3.17;;;27.20;99.90;;;;;;5112614;28;20631;-79
2024/01/14 01:29:44;;;;;;;12.63;3.20;;;27.10;99.90;;;;;;5112264;28;20226;-79
2024/01/14 01:32:15;;;;;;;9.88;2.83;;;27.10;99.90;;;;;;5112336;28;20205;-78
2024/01/14 01:34:46;;;;;;;8.60;2.83;;;27.10;99.90;;;;;;5112168;28;20217;-79
2024/01/14 01:37:20;;;;;;;10.32;3.05;;;27.10;99.90;;;;;;5110997;28;20194;-78
2024/01/14 01:39:51;;;;;;;8.35;2.58;;;27.20;99.90;;;;;;5106466;27;20195;-79
2024/01/14 01:42:21;;;;;;;7.53;2.50;;;27.30;99.90;;;;;;5091904;28;20757;-79
2024/01/14 01:44:52;;;;;;;7.72;2.13;;;27.50;99.90;;;;;;5091605;28;20191;-79
2024/01/14 01:47:23;;;;;;;7.38;2.25;;;27.60;99.90;;;;;;5091552;28;20195;-79
2024/01/14 01:49:54;;;;;;;7.18;2.30;;;27.70;99.90;;;;;;5091593;28;20222;-79
2024/01/14 01:52:28;;;;;;;6.53;2.40;;;27.80;99.90;;;;;;5091482;28;20199;-78
2024/01/14 01:55:00;;;;;;;7.53;2.40;;;27.80;99.90;;;;;;5090931;28;20202;-78
2024/01/14 01:57:32;;;;;;;8.23;2.67;;;27.60;99.90;;;;;;5107899;27;20210;-78
2024/01/14 02:00:03;;;;;;;9.98;2.33;;;27.40;99.90;;;;;;5111717;28;20194;-78
2024/01/14 02:02:34;;;;;;;7.95;2.40;;;27.30;99.90;;;;;;5111310;28;20728;-78
2024/01/14 02:05:06;;;;;;;5.55;2.35;;;27.20;99.90;;;;;;5112323;28;20216;-79
2024/01/14 02:07:39;;;;;;;7.90;2.65;;;27.20;99.90;;;;;;5112150;28;20661;-78
2024/01/14 02:10:10;;;;;;;10.20;3.00;;;27.20;99.90;;;;;;5104457;28;20581;-78
2024/01/14 02:12:44;;;;;;;19.05;5.03;;;27.10;99.90;;;;;;5091293;28;20223;-77
2024/01/14 02:15:14;;;;;;;15.07;4.20;;;26.80;99.90;;;;;;5091041;28;20662;-77
2024/01/14 02:17:45;;;;;;;14.15;4.03;;;26.40;99.90;;;;;;5101952;28;20203;-77
2024/01/14 02:20:16;;;;;;;10.50;3.28;;;26.20;99.90;;;;;;5111370;28;20195;-78
2024/01/14 02:22:51;;;;;;;10.07;3.08;;;26.00;99.90;;;;;;5096185;28;20569;-78
2024/01/14 02:25:24;;;;;;;12.43;3.45;;;25.90;99.90;;;;;;5090956;28;20198;-78
2024/01/14 02:27:55;;;;;;;11.38;3.03;;;25.80;99.90;;;;;;5090210;28;20203;-78
2024/01/14 02:30:26;;;;;;;10.98;3.40;;;25.80;99.90;;;;;;5098297;27;20697;-78
2024/01/14 02:32:58;;;;;;;10.60;3.20;;;25.70;99.90;;;;;;5110843;28;20205;-78
2024/01/14 02:35:29;;;;;;;8.77;3.05;;;25.70;99.90;;;;;;5111012;28;20197;-78
2024/01/14 02:38:00;;;;;;;9.65;2.83;;;25.60;99.90;;;;;;5106651;28;20950;-78
2024/01/14 02:40:33;;;;;;;9.13;3.90;;;25.50;99.90;;;;;;5090706;28;20633;-78
2024/01/14 02:43:04;;;;;;;12.25;3.80;;;25.50;99.90;;;;;;5090613;28;20294;-78
2024/01/14 02:45:35;;;;;;;11.75;3.70;;;25.40;99.90;;;;;;5090563;28;20201;-78
2024/01/14 02:48:06;;;;;;;13.20;5.32;;;25.50;99.90;;;;;;5103431;28;20684;-78
2024/01/14 02:50:37;;;;;;;12.35;4.60;;;25.50;99.90;;;;;;5110591;28;20544;-78
2024/01/14 02:53:07;;;;;;;9.13;4.30;;;25.50;99.90;;;;;;5110717;28;20204;-78
2024/01/14 02:55:40;;;;;;;11.27;3.95;;;25.50;99.90;;;;;;5107971;28;20209;-78
2024/01/14 02:58:11;;;;;;;8.70;3.17;;;25.50;99.90;;;;;;5090107;28;20199;-78
2024/01/14 03:00:44;;;;;;;11.07;3.47;;;25.50;99.90;;;;;;5090255;28;20199;-78
2024/01/14 03:03:17;;;;;;;8.82;3.00;;;25.60;99.90;;;;;;5106480;28;20195;-78
2024/01/14 03:05:48;;;;;;;6.30;2.33;;;25.80;99.90;;;;;;5111556;28;20202;-78
2024/01/14 03:08:18;;;;;;;8.50;2.67;;;25.80;99.90;;;;;;5111117;28;20218;-78
2024/01/14 03:10:51;;;;;;;9.98;2.60;;;25.90;99.90;;;;;;5110756;28;20226;-79
2024/01/14 03:13:22;;;;;;;7.40;2.00;;;26.10;99.90;;;;;;5102058;28;20565;-79
2024/01/14 03:15:53;;;;;;;8.10;2.50;;;26.20;99.90;;;;;;5090467;28;20657;-79
2024/01/14 03:18:23;;;;;;;10.23;2.15;;;26.30;99.90;;;;;;5090224;28;20199;-79
2024/01/14 03:20:54;;;;;;;6.53;1.77;;;26.40;99.90;;;;;;5093001;28;20679;-79
2024/01/14 03:23:25;;;;;;;7.22;1.80;;;26.40;99.90;;;;;;5110493;28;20195;-78
2024/01/14 03:25:57;;;;;;;10.18;2.25;;;26.50;99.90;;;;;;5110684;28;20205;-79
2024/01/14 03:28:28;;;;;;;6.35;1.80;;;26.50;99.90;;;;;;5105273;28;20375;-79
2024/01/14 03:30:59;;;;;;;6.28;1.90;;;26.60;99.90;;;;;;5104804;28;20218;-79
2024/01/14 03:33:30;;;;;;;10.48;2.30;;;26.60;99.90;;;;;;5110281;28;20195;-79
2024/01/14 03:36:03;;;;;;;8.80;2.25;;;26.70;99.90;;;;;;5106795;28;20201;-78
2024/01/14 03:38:33;;;;;;;6.72;2.10;;;26.70;99.90;;;;;;5101994;28;20247;-81
2024/01/14 03:41:06;;;;;;;8.32;2.22;;;26.80;99.90;;;;;;5114381;28;20214;-81
2024/01/14 03:43:37;;;;;;;7.43;2.10;;;26.80;99.90;;;;;;5113765;28;20268;-80
2024/01/14 03:46:08;;;;;;;8.70;2.20;;;26.80;99.90;;;;;;5112798;28;20199;-81
2024/01/14 03:48:42;;;;;;;7.50;2.28;;;26.90;99.90;;;;;;5111051;28;20195;-80
2024/01/14 03:51:12;;;;;;;7.75;2.10;;;26.90;99.90;;;;;;5093626;28;20550;-79
2024/01/14 03:53:43;;;;;;;8.98;2.70;;;26.90;99.90;;;;;;5093841;28;20214;-80
2024/01/14 03:56:16;;;;;;;8.48;2.30;;;26.80;99.90;;;;;;5106028;27;20205;-80
2024/01/14 03:58:46;;;;;;;7.68;1.95;;;26.80;99.90;;;;;;5113623;28;20198;-80
2024/01/14 04:01:20;;;;;;;8.13;2.00;;;26.80;99.90;;;;;;5113993;28;20237;-80
2024/01/14 04:03:51;;;;;;;6.47;1.52;;;26.80;99.90;;;;;;5113999;28;20202;-80
2024/01/14 04:06:23;;;;;;;10.02;2.28;;;26.90;99.90;;;;;;5114014;28;20206;-80
2024/01/14 04:08:53;;;;;;;7.72;2.10;;;26.80;99.90;;;;;;5113518;28;20245;-80
2024/01/14 04:11:26;;;;;;;8.70;2.30;;;26.90;99.90;;;;;;5108798;28;20223;-81
2024/01/14 04:13:57;;;;;;;9.27;2.10;;;26.90;99.90;;;;;;5113721;28;20202;-80
2024/01/14 04:16:28;;;;;;;7.68;1.90;;;26.80;99.90;;;;;;5106580;28;20195;-80
2024/01/14 04:18:58;;;;;;;7.82;1.98;;;26.80;99.90;;;;;;5101146;28;20286;-80
2024/01/14 04:21:29;;;;;;;7.53;2.05;;;26.70;99.90;;;;;;5113578;28;20194;-80
2024/01/14 04:24:02;;;;;;;6.95;1.75;;;26.60;99.90;;;;;;5113712;28;20203;-80
2024/01/14 04:26:38;;;;;;;9.73;2.30;;;26.50;99.90;;;;;;5115132;28;20726;-79
2024/01/14 04:29:08;;;;;;;8.95;1.95;;;26.40;99.90;;;;;;5116993;27;20683;-80
2024/01/14 04:31:39;;;;;;;8.82;2.20;;;26.30;99.90;;;;;;5130406;27;20215;-80
2024/01/14 04:34:10;;;;;;;10.75;2.30;;;26.20;99.90;;;;;;5113237;28;20202;-81
2024/01/14 04:36:44;;;;;;;9.75;2.20;;;26.10;99.90;;;;;;5098567;28;20191;-80
2024/01/14 04:39:14;;;;;;;8.25;2.20;;;26.10;99.90;;;;;;5113282;27;20209;-80
2024/01/14 04:41:47;;;;;;;7.93;2.40;;;26.10;99.90;;;;;;5113010;28;20218;-80
2024/01/14 04:44:18;;;;;;;7.95;1.85;;;26.10;99.90;;;;;;5113332;28;20197;-81
2024/01/14 04:46:49;;;;;;;9.55;2.03;;;26.00;99.90;;;;;;5114336;27;20202;-80
2024/01/14 04:49:19;;;;;;;6.25;1.90;;;26.00;99.90;;;;;;5113759;28;20198;-81
2024/01/14 04:51:50;;;;;;;7.10;1.75;;;26.00;99.90;;;;;;5098432;28;20222;-81
2024/01/14 04:54:21;;;;;;;6.03;1.30;;;25.90;99.90;;;;;;5093113;28;20196;-81
2024/01/14 04:56:54;;;;;;;6.60;1.80;;;25.80;99.90;;;;;;5107338;28;20198;-80
2024/01/14 04:59:24;;;;;;;6.78;1.67;;;25.80;99.90;;;;;;5113112;28;20209;-82
2024/01/14 05:01:56;;;;;;;6.22;1.70;;;25.80;99.90;;;;;;5114320;28;20227;-80
2024/01/14 05:04:26;;;;;;;7.97;1.80;;;25.90;99.90;;;;;;5111112;27;20203;-80
2024/01/14 05:06:57;;;;;;;13.07;2.40;;;25.90;99.90;;;;;;5092236;28;20202;-80
2024/01/14 05:09:28;;;;;;;12.63;2.60;;;26.00;99.90;;;;;;5108787;28;20209;-80
2024/01/14 05:12:00;;;;;;;9.38;2.20;;;26.00;99.90;;;;;;5111675;28;20237;-78
2024/01/14 05:14:32;;;;;;;9.07;2.58;;;26.00;99.90;;;;;;5103031;28;20238;-78
2024/01/14 05:17:02;;;;;;;10.13;2.42;;;26.00;99.90;;;;;;5112362;28;20205;-77
2024/01/14 05:19:33;;;;;;;12.40;2.85;;;26.00;99.90;;;;;;5111035;28;20199;-78
2024/01/14 05:22:07;;;;;;;10.80;2.28;;;25.90;99.90;;;;;;5107978;28;20199;-79
2024/01/14 05:24:38;;;;;;;12.70;2.65;;;25.90;99.90;;;;;;5112542;28;20200;-78
2024/01/14 05:27:10;;;;;;;13.00;2.72;;;25.80;99.90;;;;;;5112054;28;20611;-79
2024/01/14 05:29:44;;;;;;;17.13;2.90;;;25.90;99.90;;;;;;5095505;28;20194;-79
2024/01/14 05:32:16;;;;;;;14.55;2.80;;;25.80;99.90;;;;;;5099630;28;20214;-79
2024/01/14 05:34:47;;;;;;;13.07;2.67;;;25.80;99.90;;;;;;5103217;28;20210;-79
2024/01/14 05:37:18;;;;;;;11.10;2.40;;;25.80;99.90;;;;;;5098434;27;20205;-80
2024/01/14 05:39:49;;;;;;;12.05;2.80;;;25.80;99.90;;;;;;5113650;28;20678;-78
2024/01/14 05:42:21;;;;;;;11.23;2.67;;;25.80;99.90;;;;;;5095425;28;20210;-78
2024/01/14 05:44:52;;;;;;;13.20;2.60;;;25.70;99.90;;;;;;5111500;28;20309;-78
2024/01/14 05:47:23;;;;;;;12.23;2.72;;;25.60;99.90;;;;;;5105743;28;20201;-78
2024/01/14 05:49:54;;;;;;;17.80;2.97;;;25.70;99.90;;;;;;5104809;28;20194;-78
2024/01/14 05:52:24;;;;;;;18.30;3.13;;;25.70;99.90;;;;;;5111614;28;20226;-78
2024/01/14 05:54:55;;;;;;;15.98;2.60;;;25.70;99.90;;;;;;5120740;27;20201;-78
2024/01/14 05:57:28;;;;;;;13.13;2.63;;;25.70;99.90;;;;;;5132390;27;20201;-79
2024/01/14 05:59:59;;;;;;;10.75;2.20;;;25.70;99.90;;;;;;5115236;27;20223;-78
2024/01/14 06:02:29;;;;;;;11.68;2.25;;;25.70;99.90;;;;;;5107731;28;20226;-79
2024/01/14 06:05:00;;;;;;;13.45;3.00;;;25.80;99.90;;;;;;5099893;28;20238;-79
2024/01/14 06:07:31;;;;;;;16.30;2.83;;;25.80;99.90;;;;;;5091340;28;20577;-79
2024/01/14 06:10:03;;;;;;;15.35;2.70;;;25.90;99.90;;;;;;5104629;28;20202;-80
2024/01/14 06:12:36;;;;;;;14.43;2.63;;;25.90;99.90;;;;;;5112312;27;20271;-77
2024/01/14 06:15:07;;;;;;;10.05;2.35;;;25.90;99.90;;;;;;5111400;28;20546;-77
2024/01/14 06:17:38;;;;;;;15.82;2.75;;;25.90;99.90;;;;;;5109969;28;20199;-79
2024/01/14 06:20:10;;;;;;;13.23;2.80;;;25.90;99.90;;;;;;5111216;28;20669;-78
2024/01/14 06:22:40;;;;;;;12.43;2.67;;;25.80;99.90;;;;;;5109641;28;20214;-78
2024/01/14 06:25:12;;;;;;;11.57;2.80;;;25.80;99.90;;;;;;5108760;28;20282;-78
2024/01/14 06:27:45;;;;;;;16.23;2.80;;;25.90;99.90;;;;;;5110494;28;20201;-77
2024/01/14 06:30:16;;;;;;;9.70;2.42;;;26.00;99.90;;;;;;5099312;28;20198;-78
2024/01/14 06:32:47;;;;;;;15.98;3.17;;;26.20;99.90;;;;;;5101237;28;20261;-78
2024/01/14 06:35:18;;;;;;;10.48;2.50;;;26.30;99.90;;;;;;5106421;28;20201;-78
2024/01/14 06:37:49;;;;;;;15.18;2.70;;;26.30;99.90;;;;;;5111119;28;20194;-79
2024/01/14 06:40:19;;;;;;;10.80;2.42;;;26.30;99.90;;;;;;5108371;28;20226;-80
2024/01/14 06:42:52;;;;;;;8.68;2.08;;;26.40;99.90;;;;;;5109365;28;20239;-78
2024/01/14 06:45:23;;;;;;;10.40;2.28;;;26.60;99.90;;;;;;5097716;28;20206;-78
2024/01/14 06:47:54;;;;;;;10.05;2.35;;;26.50;99.90;;;;;;5111276;28;20632;-76
2024/01/14 06:50:24;;;;;;;12.23;2.67;;;26.50;99.90;;;;;;5111300;28;20206;-79
2024/01/14 06:52:55;;;;;;;13.57;2.95;;;26.60;99.90;;;;;;5090187;28;20223;-77
2024/01/14 06:55:26;;;;;;;11.50;2.50;;;26.50;99.90;;;;;;5110722;28;20198;-79
2024/01/14 06:58:01;;;;;;;12.18;3.28;;;26.40;99.90;;;;;;5109530;28;20202;-78
2024/01/14 07:00:32;;;;;;;12.88;3.25;;;26.30;99.90;;;;;;5110658;28;20201;-78
2024/01/14 07:03:03;;;;;;;13.35;3.20;;;26.20;99.90;;;;;;5117163;27;20234;-79
2024/01/14 07:05:34;;;;;;;13.60;2.80;;;26.20;99.90;;;;;;5110873;28;20195;-79
2024/01/14 07:08:05;;;;;;;9.35;2.50;;;26.10;99.90;;;;;;5102966;28;20206;-78
2024/01/14 07:10:35;;;;;;;12.50;2.67;;;26.00;99.90;;;;;;5108250;28;20198;-78
2024/01/14 07:13:08;;;;;;;8.75;2.60;;;25.90;99.90;;;;;;5109209;28;20245;-78
2024/01/14 07:15:39;;;;;;;7.53;1.95;;;25.90;99.90;;;;;;5110412;28;20273;-77
2024/01/14 07:18:10;;;;;;;10.35;2.35;;;25.80;99.90;;;;;;5108927;28;20203;-78
2024/01/14 07:20:42;;;;;;;12.50;2.78;;;25.70;99.90;;;;;;5118851;28;20194;-78
2024/01/14 07:23:13;;;;;;;6.13;1.85;;;25.70;99.90;;;;;;5110266;28;20195;-79
2024/01/14 07:25:43;;;;;;;11.25;2.70;;;25.70;99.90;;;;;;5106847;28;20198;-77
2024/01/14 07:28:16;;;;;;;11.27;2.53;;;25.70;99.90;;;;;;5104175;28;20203;-78
2024/01/14 07:30:47;;;;;;;14.35;2.63;;;25.70;99.90;;;;;;5102047;28;20228;-79
2024/01/14 07:33:18;;;;;;;12.68;2.72;;;25.70;99.90;;;;;;5089865;28;20233;-78
2024/01/14 07:35:48;;;;;;;12.82;2.88;;;25.70;99.90;;;;;;5110101;28;20198;-78
2024/01/14 07:38:19;;;;;;;11.77;3.00;;;25.70;99.90;;;;;;5130971;27;20606;-77
2024/01/14 07:40:50;;;;;;;17.40;3.10;;;25.70;99.90;;;;;;5108102;27;20221;-77
2024/01/14 07:43:22;;;;;;;14.05;2.95;;;25.70;99.90;;;;;;5108924;28;20205;-77
2024/01/14 07:45:53;;;;;;;11.85;2.85;;;25.60;99.90;;;;;;5107201;28;20199;-77
2024/01/14 07:48:26;;;;;;;13.23;3.03;;;25.50;99.90;;;;;;5105378;28;20191;-77
2024/01/14 07:50:57;;;;;;;11.40;2.70;;;25.40;99.90;;;;;;5108336;28;20191;-77
2024/01/14 07:53:28;;;;;;;10.65;2.70;;;25.30;99.90;;;;;;5110604;28;20236;-77
2024/01/14 07:55:59;;;;;;;13.23;3.10;;;25.20;99.90;;;;;;5108807;28;20542;-77
2024/01/14 07:58:32;;;;;;;10.02;2.88;;;25.20;99.90;;;;;;5109776;28;20213;-78
2024/01/14 08:01:02;;;;;;;12.35;3.20;;;25.20;99.90;;;;;;5109989;28;20195;-77
2024/01/14 08:03:33;;;;;;;13.48;3.38;;;25.10;99.90;;;;;;5110041;28;20488;-78
2024/01/14 08:06:04;;;;;;;9.82;2.97;;;25.10;99.90;;;;;;5106179;28;20557;-77
2024/01/14 08:08:35;;;;;;;15.13;3.17;;;25.00;99.90;;;;;;5107350;28;20198;-77
2024/01/14 08:11:11;;;;;;;9.73;2.40;;;25.00;99.90;;;;;;5121457;28;20209;-78
2024/01/14 08:13:44;;;;;;;6.80;2.30;;;24.90;99.90;;;;;;5093942;28;20595;-78
2024/01/14 08:16:15;;;;;;;12.10;2.83;;;24.90;99.90;;;;;;5110124;28;20195;-78
2024/01/14 08:18:45;;;;;;;11.82;2.45;;;24.80;99.90;;;;;;5107951;28;20195;-78
2024/01/14 08:21:16;;;;;;;10.10;2.35;;;24.80;99.90;;;;;;5110471;28;20279;-79
2024/01/14 08:23:47;;;;;;;8.40;2.30;;;24.80;99.90;;;;;;5097644;28;20198;-78
2024/01/14 08:26:18;;;;;;;11.60;3.00;;;24.80;99.90;;;;;;5109960;28;20207;-77
2024/01/14 08:28:50;;;;;;;10.75;3.97;;;24.90;99.90;;;;;;5114858;27;20198;-77
2024/01/14 08:31:21;;;;;;;7.20;2.40;;;24.90;99.90;;;;;;5105961;28;20199;-77
2024/01/14 08:33:52;;;;;;;12.07;2.33;;;24.90;99.90;;;;;;5112234;28;20210;-77
2024/01/14 08:36:22;;;;;;;7.65;1.88;;;24.80;99.90;;;;;;5112483;28;20307;-77
2024/01/14 08:38:53;;;;;;;14.00;3.03;;;24.80;99.90;;;;;;5107808;28;20202;-77
2024/01/14 08:41:26;;;;;;;9.68;2.72;;;24.80;99.90;;;;;;5113556;28;20219;-78
2024/01/14 08:43:59;;;;;;;13.68;2.58;;;24.80;99.90;;;;;;5115299;27;20661;-78
2024/01/14 08:46:30;;;;;;;10.75;2.60;;;24.80;99.90;;;;;;5112191;27;20264;-77
2024/01/14 08:49:01;;;;;;;10.20;2.72;;;24.80;99.90;;;;;;5101594;28;20676;-78
2024/01/14 08:51:32;;;;;;;13.20;2.70;;;24.80;99.90;;;;;;5112979;28;20664;-76
2024/01/14 08:54:02;;;;;;;10.88;2.65;;;24.90;99.90;;;;;;5113059;28;20205;-78
2024/01/14 08:56:33;;;;;;;11.27;2.85;;;24.90;99.90;;;;;;5107913;28;20197;-78
2024/01/14 08:59:06;;;;;;;21.00;3.67;;;24.90;99.90;;;;;;5107862;28;20199;-77
2024/01/14 09:01:36;;;;;;;13.43;3.15;;;24.80;99.90;;;;;;5108834;27;20242;-77
2024/01/14 09:04:07;;;;;;;13.00;3.35;;;24.80;99.90;;;;;;5112847;28;20194;-78
2024/01/14 09:06:40;;;;;;;15.43;4.15;;;24.80;99.90;;;;;;5111082;28;20191;-77
2024/01/14 09:09:11;;;;;;;12.80;3.22;;;24.70;99.90;;;;;;5111494;28;20505;-78
2024/01/14 09:11:46;;;;;;;15.65;3.33;;;24.60;99.90;;;;;;5105278;28;20665;-78
2024/01/14 09:14:19;;;;;;;9.20;2.88;;;24.60;99.90;;;;;;5097142;28;20243;-77
2024/01/14 09:16:52;;;;;;;12.73;3.05;;;24.60;99.90;;;;;;5111271;28;20194;-78
2024/01/14 09:19:23;;;;;;;11.93;2.95;;;24.50;99.90;;;;;;5115360;27;20195;-77
2024/01/14 09:21:56;;;;;;;13.25;3.10;;;24.50;99.90;;;;;;5106894;27;20264;-77
2024/01/14 09:24:27;;;;;;;14.02;3.22;;;24.50;99.90;;;;;;5111701;28;20198;-78
2024/01/14 09:26:57;;;;;;;15.70;3.28;;;24.50;99.90;;;;;;5108011;28;20199;-77
2024/01/14 09:29:30;;;;;;;15.68;2.95;;;24.50;99.90;;;;;;5103857;28;20199;-77
2024/01/14 09:32:01;;;;;;;14.30;3.25;;;24.50;99.90;;;;;;5110904;28;20687;-78
2024/01/14 09:34:31;;;;;;;16.58;3.20;;;24.50;99.90;;;;;;5108488;28;20195;-78
2024/01/14 09:37:04;;;;;;;16.90;3.72;;;24.50;99.90;;;;;;5112436;27;20209;-76
2024/01/14 09:39:38;;;;;;;21.70;3.97;;;24.50;99.90;;;;;;5110781;28;20562;-77
2024/01/14 09:42:17;;;;;;;19.95;3.38;;;24.60;99.90;;;;;;5112112;28;20198;-77
2024/01/14 09:44:53;;;;;;;16.27;3.08;;;24.60;99.90;;;;;;5106705;28;20195;-78
2024/01/14 09:47:24;;;;;;;11.27;3.15;;;24.50;99.90;;;;;;5102296;28;20198;-77
2024/01/14 09:49:57;;;;;;;16.80;3.45;;;24.50;99.90;;;;;;5109271;28;20195;-77
2024/01/14 09:52:29;;;;;;;18.15;3.58;;;24.50;99.90;;;;;;5116716;27;20217;-78
2024/01/14 09:55:00;;;;;;;19.65;4.32;;;24.50;99.90;;;;;;5117222;27;20256;-77
2024/01/14 09:57:32;;;;;;;16.02;3.58;;;24.50;99.90;;;;;;5109992;28;20217;-78
2024/01/14 10:00:06;;;;;;;16.40;3.50;;;24.40;99.90;;;;;;5112291;28;20562;-78
2024/01/14 10:02:37;;;;;;;18.13;3.70;;;24.40;99.90;;;;;;5100009;28;20283;-78
2024/01/14 10:05:09;;;;;;;16.40;3.70;;;24.40;99.90;;;;;;5091171;28;20196;-79
2024/01/14 10:07:41;;;;;;;21.42;3.88;;;24.50;99.90;;;;;;5108126;28;20222;-78
2024/01/14 10:10:12;;;;;;;20.48;3.80;;;24.50;99.90;;;;;;5109607;28;20206;-78
2024/01/14 10:12:43;;;;;;;18.73;3.83;;;24.50;99.90;;;;;;5090764;28;20222;-78
2024/01/14 10:15:16;;;;;;;22.15;4.00;;;24.40;99.90;;;;;;5110818;28;20195;-79
2024/01/14 10:17:49;;;;;;;20.92;4.15;;;24.40;99.90;;;;;;5111731;28;20195;-79
2024/01/14 10:20:23;;;;;;;20.85;4.03;;;24.40;99.90;;;;;;5111687;27;20657;-78
2024/01/14 10:22:54;;;;;;;20.98;3.70;;;24.40;99.90;;;;;;5111668;28;20576;-79
2024/01/14 10:25:28;;;;;;;21.00;3.90;;;24.40;99.90;;;;;;5110810;28;20563;-78
2024/01/14 10:27:59;;;;;;;16.27;3.75;;;24.40;99.90;;;;;;5104090;27;20199;-78
2024/01/14 10:30:32;;;;;;;15.45;3.40;;;24.30;99.90;;;;;;5093894;28;20562;-78
2024/01/14 10:33:03;;;;;;;13.15;3.00;;;24.30;99.90;;;;;;5097924;28;20215;-77
2024/01/14 10:35:34;;;;;;;12.30;3.00;;;24.30;99.90;;;;;;5111135;28;20206;-79
2024/01/14 10:38:07;;;;;;;12.10;2.90;;;24.20;99.90;;;;;;5102567;28;20191;-76
2024/01/14 10:40:37;;;;;;;15.07;2.80;;;24.10;99.90;;;;;;5090052;28;20222;-78
2024/01/14 10:43:08;;;;;;;11.20;2.45;;;24.00;99.90;;;;;;5098282;28;20198;-80
2024/01/14 10:45:41;;;;;;;9.25;2.42;;;24.00;99.90;;;;;;5111036;28;20190;-77
2024/01/14 10:48:18;;;;;;;12.77;2.80;;;24.00;99.90;;;;;;5111013;28;20225;-78
2024/01/14 10:50:54;;;;;;;13.00;2.83;;;23.90;99.90;;;;;;5107860;28;20199;-78
2024/01/14 10:53:26;;;;;;;14.48;3.00;;;23.90;99.90;;;;;;5111197;28;20626;-77
2024/01/14 10:56:02;;;;;;;10.65;2.50;;;23.80;99.90;;;;;;5112128;28;20237;-81
2024/01/14 10:58:36;;;;;;;16.55;3.22;;;23.80;99.90;;;;;;5105091;28;20232;-77
2024/01/14 11:01:13;;;;;;;13.02;2.90;;;23.80;99.90;;;;;;5122517;27;20627;-78
2024/01/14 11:03:46;;;;;;;9.80;2.10;;;23.70;99.90;;;;;;5124182;27;20192;-78
2024/01/14 11:06:19;;;;;;;8.57;2.50;;;23.70;99.90;;;;;;5110843;28;20263;-78
2024/01/14 11:08:54;;;;;;;10.05;2.70;;;23.70;99.90;;;;;;5110873;28;20661;-76
2024/01/14 11:11:33;;;;;;;8.63;2.28;;;23.80;99.90;;;;;;5109749;28;20190;-77
2024/01/14 11:14:11;;;;;;;7.10;1.80;;;23.70;99.90;;;;;;5110561;28;20739;-78
2024/01/14 11:16:54;;;;;;;10.55;2.30;;;23.70;99.90;;;;;;5097705;28;20277;-78
2024/01/14 11:19:29;;;;;;;7.68;1.85;;;23.70;99.90;;;;;;5094485;28;20191;-78
2024/01/14 11:22:13;;;;;;;8.13;1.98;;;23.60;99.90;;;;;;5100295;28;20595;-77
2024/01/14 11:24:44;;;;;;;7.15;1.60;;;23.60;99.90;;;;;;5110605;28;20212;-79
2024/01/14 11:27:15;;;;;;;7.97;1.80;;;23.60;99.90;;;;;;5108394;28;20190;-78
2024/01/14 11:29:46;;;;;;;5.30;1.55;;;23.60;99.90;;;;;;5110139;28;20194;-78
2024/01/14 11:32:23;;;;;;;7.10;1.80;;;23.60;99.90;;;;;;5106948;28;20207;-77
2024/01/14 11:35:02;;;;;;;6.75;1.50;;;23.50;99.90;;;;;;5114758;28;20255;-78
2024/01/14 11:37:46;;;;;;;7.78;1.50;;;23.50;99.90;;;;;;5110216;28;20224;-78
2024/01/14 11:40:30;;;;;;;4.93;1.50;;;23.50;99.90;;;;;;5104389;28;20328;-77
2024/01/14 11:43:07;;;;;;;8.32;1.98;;;23.50;99.90;;;;;;5094721;28;20279;-77
2024/01/14 11:45:42;;;;;;;9.23;2.17;;;23.50;99.90;;;;;;5110146;28;20194;-77
2024/01/14 11:48:16;;;;;;;8.38;2.33;;;23.50;99.90;;;;;;5110544;28;20285;-78
2024/01/14 11:50:51;;;;;;;7.30;1.67;;;23.40;99.90;;;;;;5111558;28;20200;-78
2024/01/14 11:53:22;;;;;;;9.13;2.10;;;23.30;99.90;;;;;;5122174;28;20206;-79
2024/01/14 11:55:53;;;;;;;8.70;2.45;;;23.30;99.90;;;;;;5104501;28;20233;-78
2024/01/14 11:58:25;;;;;;;8.55;2.05;;;23.30;99.90;;;;;;5096761;28;20191;-77
2024/01/14 12:00:58;;;;;;;9.68;2.40;;;23.30;99.90;;;;;;5099842;28;20362;-76
2024/01/14 12:03:30;;;;;;;11.75;2.55;;;23.40;99.90;;;;;;5112799;28;20195;-77
2024/01/14 12:06:05;;;;;;;18.67;3.58;;;23.40;99.90;;;;;;5105022;28;20203;-78
2024/01/14 12:08:36;;;;;;;13.48;3.25;;;23.40;99.90;;;;;;5102926;27;20198;-78
2024/01/14 12:11:06;;;;;;;22.65;4.15;;;23.40;99.90;;;;;;5109459;28;20541;-79
2024/01/14 12:13:37;;;;;;;17.65;4.40;;;23.40;99.90;;;;;;5108791;28;20225;-78
2024/01/14 12:16:09;;;;;;;20.60;4.10;;;23.50;99.90;;;;;;5101454;28;20192;-78
2024/01/14 12:18:45;;;;;;;20.38;4.00;;;23.50;99.90;;;;;;5105431;28;20199;-78
2024/01/14 12:21:18;;;;;;;22.67;3.75;;;23.50;99.90;;;;;;5114027;28;20201;-77
2024/01/14 12:23:49;;;;;;;31.48;4.55;;;23.50;99.90;;;;;;5109687;28;20653;-77
2024/01/14 12:26:20;;;;;;;18.15;4.10;;;23.50;99.90;;;;;;5108743;27;20240;-77
2024/01/14 12:28:52;;;;;;;18.95;3.83;;;23.50;99.90;;;;;;5094403;28;20203;-78
2024/01/14 12:31:24;;;;;;;17.77;3.65;;;23.40;99.90;;;;;;5114145;28;20195;-78
2024/01/14 12:33:56;;;;;;;20.77;3.83;;;23.50;99.90;;;;;;5106164;28;20223;-77
2024/01/14 12:36:27;;;;;;;17.35;3.58;;;23.50;99.90;;;;;;5104637;28;20198;-77
2024/01/14 12:38:59;;;;;;;21.40;4.10;;;23.50;99.90;;;;;;5113318;27;20202;-78
2024/01/14 12:41:29;;;;;;;20.10;3.75;;;23.50;99.90;;;;;;5113477;28;20225;-77
2024/01/14 12:44:01;;;;;;;21.42;3.90;;;23.60;99.90;;;;;;5094460;27;20195;-77
2024/01/14 12:46:31;;;;;;;19.13;3.97;;;23.50;99.90;;;;;;5093231;28;20602;-77
2024/01/14 12:49:11;;;;;;;14.30;3.45;;;23.60;99.90;;;;;;5093047;28;20195;-76
2024/01/14 12:51:42;;;;;;;15.77;3.70;;;23.60;99.90;;;;;;5098002;28;20209;-77
2024/01/14 12:54:13;;;;;;;20.55;3.97;;;23.60;99.90;;;;;;5112965;28;20226;-77
2024/01/14 12:56:58;;;;;;;16.77;3.72;;;23.60;99.90;;;;;;5112155;28;20220;-77
2024/01/14 12:59:29;;;;;;;22.52;4.65;;;23.60;99.90;;;;;;5099672;27;20194;-76
2024/01/14 13:02:00;;;;;;;22.00;4.00;;;23.60;99.90;;;;;;5112680;28;20233;-77
2024/01/14 13:04:33;;;;;;;19.45;3.88;;;23.70;99.90;;;;;;5112923;28;20194;-78